Time;durP1;ratioP1;P1;durP2;ratioP2;P2;SDS_P1;SDS_P2;PMS_P1;PMS_P2;Temp;Humidity;BMP_temperature;BMP_pressure;BME280_temperature;BME280_humidity;BME280_pressure;Samples;Min_cycle;Max_cycle;Signal;HPM_P1;HPM_P2
2021/10/01 00:09:00;;;;;;;12.52;9.32;;;;;;;;;;21080191;28;20407;-58
2021/10/01 00:19:02;;;;;;;13.13;9.32;;;;;;;;;;21079325;28;20056;-59
2021/10/01 00:29:05;;;;;;;10.90;8.23;;;;;;;;;;21078935;28;20041;-55
2021/10/01 00:39:07;;;;;;;18.10;9.77;;;;;;;;;;21078488;28;20052;-59
2021/10/01 00:49:09;;;;;;;10.70;8.85;;;;;;;;;;21077723;28;20044;-56
2021/10/01 00:59:12;;;;;;;13.88;9.32;;;;;;;;;;21077661;28;20063;-56
2021/10/01 01:09:37;;;;;;;12.63;8.88;;;;;;;;;;21076752;28;20040;-56
2021/10/01 01:19:58;;;;;;;13.48;9.70;;;;;;;;;;20909646;28;20049;-58
2021/10/01 01:30:06;;;;;;;12.32;8.18;;;;;;;;;;20916457;28;20049;-58
2021/10/01 01:40:10;;;;;;;13.82;8.60;;;;;;;;;;20915510;28;20064;-59
2021/10/01 01:50:16;;;;;;;10.27;8.50;;;;;;;;;;20958281;28;20062;-54
2021/10/01 02:00:23;;;;;;;11.75;8.85;;;;;;;;;;21088789;28;20060;-57
2021/10/01 02:10:28;;;;;;;12.40;8.13;;;;;;;;;;21088256;28;20458;-57
2021/10/01 02:20:34;;;;;;;9.55;7.55;;;;;;;;;;21087600;28;20055;-56
2021/10/01 02:30:39;;;;;;;11.65;7.82;;;;;;;;;;21086224;28;20405;-55
2021/10/01 02:40:52;;;;;;;7.47;6.60;;;;;;;;;;21085759;28;20048;-59
2021/10/01 02:51:02;;;;;;;8.23;6.53;;;;;;;;;;21085012;28;20047;-58
2021/10/01 03:01:05;;;;;;;9.05;6.05;;;;;;;;;;21084301;28;20059;-58
2021/10/01 03:11:15;;;;;;;6.70;5.43;;;;;;;;;;21083505;28;20048;-56
2021/10/01 03:21:26;;;;;;;9.43;5.95;;;;;;;;;;21082895;28;20090;-55
2021/10/01 03:31:49;;;;;;;7.43;5.97;;;;;;;;;;21083362;28;20048;-59
2021/10/01 03:42:10;;;;;;;10.13;6.07;;;;;;;;;;21080516;28;20109;-58
2021/10/01 03:52:20;;;;;;;8.18;6.25;;;;;;;;;;21081371;28;20127;-56
2021/10/01 04:02:28;;;;;;;8.57;6.72;;;;;;;;;;21079742;28;20087;-55
2021/10/01 04:12:38;;;;;;;9.75;7.63;;;;;;;;;;21078757;28;20040;-55
2021/10/01 04:22:43;;;;;;;9.85;8.18;;;;;;;;;;21078563;28;20480;-56
2021/10/01 04:33:01;;;;;;;10.00;7.32;;;;;;;;;;21078305;28;20075;-56
2021/10/01 04:43:07;;;;;;;11.15;8.13;;;;;;;;;;21077567;28;20048;-55
2021/10/01 04:53:13;;;;;;;9.82;7.60;;;;;;;;;;21083850;28;20051;-58
2021/10/01 05:03:17;;;;;;;;;;;;;;;;;;21093556;28;20102;-58
2021/10/01 05:13:22;;;;;;;;;;;;;;;;;;21092456;28;19930;-60
2021/10/01 05:23:26;;;;;;;11.13;7.75;;;;;;;;;;21092027;28;20394;-59
2021/10/01 05:33:29;;;;;;;12.02;7.72;;;;;;;;;;21090385;28;20048;-59
2021/10/01 05:43:35;;;;;;;12.68;7.55;;;;;;;;;;21090173;28;20403;-56
2021/10/01 06:03:45;;;;;;;13.45;7.00;;;;;;;;;;21087384;28;20056;-55
2021/10/01 06:13:48;;;;;;;16.13;7.68;;;;;;;;;;21087073;28;20131;-56
2021/10/01 06:23:51;;;;;;;11.63;7.00;;;;;;;;;;21086267;28;20047;-60
2021/10/01 06:33:53;;;;;;;8.77;7.47;;;;;;;;;;21086052;28;20051;-58
2021/10/01 06:44:01;;;;;;;10.45;7.70;;;;;;;;;;21085655;28;20549;-56
2021/10/01 08:18:18;;;;;;;12.10;6.05;;;;;;;;;;21079841;28;20066;-55
2021/10/01 08:27:11;;;;;;;9.75;5.03;;;;;;;;;;21087291;28;20052;-58
2021/10/01 08:37:17;;;;;;;15.65;6.88;;;;;;;;;;21106063;28;20133;-57
2021/10/01 08:47:21;;;;;;;11.25;6.63;;;;;;;;;;21105184;28;20048;-55
2021/10/01 08:57:25;;;;;;;9.53;7.20;;;;;;;;;;21104843;28;20075;-57
2021/10/01 09:07:28;;;;;;;9.75;7.47;;;;;;;;;;21104337;28;20044;-60
2021/10/01 09:17:33;;;;;;;15.47;8.37;;;;;;;;;;21104432;28;20439;-57
2021/10/01 09:27:36;;;;;;;8.82;6.68;;;;;;;;;;21104705;28;20086;-63
2021/10/01 09:37:41;;;;;;;12.15;8.40;;;;;;;;;;21162085;28;20046;-63
2021/10/01 09:47:45;;;;;;;15.43;8.47;;;;;;;;;;21173447;28;20471;-58
2021/10/01 09:58:08;;;;;;;14.25;8.43;;;;;;;;;;21154543;27;20058;-60
2021/10/01 10:08:10;;;;;;;19.42;10.20;;;;;;;;;;21169725;28;20047;-65
2021/10/01 10:18:18;;;;;;;16.08;10.40;;;;;;;;;;21171918;28;20056;-63
2021/10/01 10:28:21;;;;;;;23.13;15.48;;;;;;;;;;21172244;28;20048;-64
2021/10/01 10:38:32;;;;;;;20.42;13.00;;;;;;;;;;21170449;28;20104;-66
2021/10/01 10:48:34;;;;;;;19.83;14.10;;;;;;;;;;21168875;28;20047;-58
2021/10/01 10:58:38;;;;;;;18.97;12.50;;;;;;;;;;21168332;28;20201;-67
2021/10/01 11:08:40;;;;;;;19.88;12.60;;;;;;;;;;21167566;28;20048;-60
2021/10/01 11:18:46;;;;;;;26.50;12.10;;;;;;;;;;21167430;28;20100;-64
2021/10/01 11:28:48;;;;;;;24.25;12.18;;;;;;;;;;21164163;28;20086;-58
2021/10/01 11:38:51;;;;;;;24.52;13.55;;;;;;;;;;21165837;28;20476;-56
2021/10/01 11:48:53;;;;;;;53.53;17.20;;;;;;;;;;21164018;28;20549;-59
2021/10/01 11:58:55;;;;;;;14.00;9.47;;;;;;;;;;21163050;28;20506;-62
2021/10/01 12:09:01;;;;;;;12.10;9.43;;;;;;;;;;21162687;28;20044;-68
2021/10/01 12:19:05;;;;;;;18.55;12.40;;;;;;;;;;21163129;28;20083;-68
2021/10/01 12:29:10;;;;;;;17.70;11.95;;;;;;;;;;21163083;28;20040;-66
2021/10/01 12:39:12;;;;;;;12.98;10.82;;;;;;;;;;21161505;28;20514;-62
2021/10/01 12:49:30;;;;;;;14.00;10.13;;;;;;;;;;21161846;28;20039;-61
2021/10/01 12:59:41;;;;;;;22.27;10.98;;;;;;;;;;21161433;28;20063;-60
2021/10/01 13:09:43;;;;;;;14.65;9.73;;;;;;;;;;21161271;28;20070;-59
2021/10/01 13:20:00;;;;;;;11.07;8.80;;;;;;;;;;21177045;28;20083;-69
2021/10/01 13:30:02;;;;;;;19.50;10.82;;;;;;;;;;21177098;28;20043;-58
2021/10/01 13:40:05;;;;;;;18.38;11.15;;;;;;;;;;21174978;28;20086;-59
2021/10/01 13:50:11;;;;;;;11.65;7.95;;;;;;;;;;21175149;28;20039;-59
2021/10/01 14:00:15;;;;;;;10.73;6.28;;;;;;;;;;21173856;28;20062;-61
2021/10/01 14:10:18;;;;;;;5.95;5.10;;;;;;;;;;21173600;28;20071;-64
2021/10/01 14:20:23;;;;;;;9.40;6.55;;;;;;;;;;21172857;28;20497;-66
2021/10/01 14:30:28;;;;;;;5.90;4.40;;;;;;;;;;21171393;28;20476;-61
2021/10/01 14:40:30;;;;;;;4.97;3.55;;;;;;;;;;21171101;28;20047;-70
2021/10/01 14:50:33;;;;;;;4.53;3.67;;;;;;;;;;21169805;28;20052;-60
2021/10/01 15:00:35;;;;;;;7.97;4.70;;;;;;;;;;21168506;28;20200;-63
2021/10/01 15:10:37;;;;;;;4.00;3.33;;;;;;;;;;21167819;28;20047;-61
2021/10/01 15:20:39;;;;;;;5.70;3.60;;;;;;;;;;21166221;28;20086;-58
2021/10/01 15:30:42;;;;;;;3.90;3.20;;;;;;;;;;21164134;28;20127;-59
2021/10/01 15:40:47;;;;;;;5.05;2.67;;;;;;;;;;21096517;27;20533;-57
2021/10/01 15:50:49;;;;;;;4.38;2.80;;;;;;;;;;21079801;28;20040;-63
2021/10/01 16:00:51;;;;;;;4.17;2.53;;;;;;;;;;21079576;28;20518;-61
2021/10/01 16:10:52;;;;;;;2.77;2.03;;;;;;;;;;21078938;28;20135;-57
2021/10/01 16:20:54;;;;;;;6.73;3.43;;;;;;;;;;21077446;28;20048;-64
2021/10/01 16:30:56;;;;;;;4.20;2.47;;;;;;;;;;21077064;28;20055;-56
2021/10/01 16:40:57;;;;;;;3.93;3.10;;;;;;;;;;21075691;28;20066;-60
2021/10/01 16:50:59;;;;;;;5.43;2.80;;;;;;;;;;21110793;28;20449;-59
2021/10/01 17:01:01;;;;;;;7.93;4.70;;;;;;;;;;21176412;27;20056;-69
2021/10/01 17:11:03;;;;;;;5.13;3.07;;;;;;;;;;21175852;28;20047;-57
2021/10/01 17:21:04;;;;;;;6.80;3.13;;;;;;;;;;21174164;28;20082;-59
2021/10/01 17:31:06;;;;;;;4.67;3.40;;;;;;;;;;21173507;28;20061;-58
2021/10/01 17:41:08;;;;;;;6.97;4.53;;;;;;;;;;21173342;28;20050;-59
2021/10/01 17:51:10;;;;;;;6.80;3.95;;;;;;;;;;21171229;28;20040;-57
2021/10/01 18:01:12;;;;;;;6.93;4.30;;;;;;;;;;21169054;28;20055;-58
2021/10/01 18:11:14;;;;;;;6.20;4.30;;;;;;;;;;21169620;28;20055;-58
2021/10/01 18:21:16;;;;;;;6.30;4.30;;;;;;;;;;21169081;28;20100;-61
2021/10/01 18:31:18;;;;;;;6.17;3.90;;;;;;;;;;21167256;28;20138;-61
2021/10/01 18:41:20;;;;;;;9.23;5.15;;;;;;;;;;21168655;28;20055;-61
2021/10/01 18:51:22;;;;;;;8.77;4.90;;;;;;;;;;21167135;28;20061;-60
2021/10/01 19:01:25;;;;;;;9.45;5.75;;;;;;;;;;21165964;28;20051;-59
2021/10/01 19:11:28;;;;;;;11.85;8.40;;;;;;;;;;21164919;28;20043;-62
2021/10/01 19:21:33;;;;;;;7.88;5.28;;;;;;;;;;21165076;28;20056;-58
2021/10/01 19:31:35;;;;;;;9.43;5.72;;;;;;;;;;21163543;28;20402;-62
2021/10/01 19:41:37;;;;;;;9.77;6.27;;;;;;;;;;21162367;28;20044;-62
2021/10/01 19:51:38;;;;;;;40.85;30.50;;;;;;;;;;21161885;28;20051;-61
2021/10/01 20:01:41;;;;;;;9.60;6.03;;;;;;;;;;21161380;28;20090;-59
2021/10/01 20:11:43;;;;;;;11.33;6.60;;;;;;;;;;21161728;28;20043;-58
2021/10/01 20:22:35;;;;;;;8.55;6.82;;;;;;;;;;21159792;28;20063;-59
2021/10/01 20:52:51;;;;;;;8.45;6.60;;;;;;;;;;21159561;28;20549;-61
2021/10/01 21:03:32;;;;;;;10.00;7.22;;;;;;;;;;21140599;28;20063;-60
2021/10/01 21:44:45;;;;;;;10.38;7.47;;;;;;;;;;21172446;28;20052;-61
2021/10/01 21:54:50;;;;;;;8.00;6.00;;;;;;;;;;21173774;28;20101;-60
2021/10/01 22:25:18;;;;;;;14.75;6.32;;;;;;;;;;21172072;28;20094;-58
2021/10/01 22:35:20;;;;;;;11.57;7.20;;;;;;;;;;21171774;28;20130;-60
2021/10/01 22:45:22;;;;;;;13.32;9.13;;;;;;;;;;21170880;28;20494;-67
2021/10/01 22:55:24;;;;;;;10.25;6.90;;;;;;;;;;21169717;28;20460;-65
2021/10/01 23:05:28;;;;;;;11.25;6.00;;;;;;;;;;21168862;28;20047;-66
